sensor_id;sensor_type;location;lat;lon;timestamp;P1;durP1;ratioP1;P2;durP2;ratioP2
46613;SDS011;32338;50.430;6.806;2023-05-07T00:00:42;1.92;;;0.68;;
46613;SDS011;32338;50.430;6.806;2023-05-07T00:03:10;1.75;;;0.50;;
46613;SDS011;32338;50.430;6.806;2023-05-07T00:05:38;0.80;;;0.50;;
46613;SDS011;32338;50.430;6.806;2023-05-07T00:08:06;4.20;;;0.80;;
46613;SDS011;32338;50.430;6.806;2023-05-07T00:10:33;1.50;;;0.52;;
46613;SDS011;32338;50.430;6.806;2023-05-07T00:12:59;0.85;;;0.52;;
46613;SDS011;32338;50.430;6.806;2023-05-07T00:15:26;3.05;;;0.60;;
46613;SDS011;32338;50.430;6.806;2023-05-07T00:17:53;0.80;;;0.50;;
46613;SDS011;32338;50.430;6.806;2023-05-07T00:20:21;1.38;;;0.60;;
46613;SDS011;32338;50.430;6.806;2023-05-07T00:22:47;1.88;;;0.60;;
46613;SDS011;32338;50.430;6.806;2023-05-07T00:25:14;1.30;;;0.65;;
46613;SDS011;32338;50.430;6.806;2023-05-07T00:27:40;0.95;;;0.60;;
46613;SDS011;32338;50.430;6.806;2023-05-07T00:30:07;1.95;;;0.65;;
46613;SDS011;32338;50.430;6.806;2023-05-07T00:32:34;1.98;;;0.60;;
46613;SDS011;32338;50.430;6.806;2023-05-07T00:35:01;0.60;;;0.50;;
46613;SDS011;32338;50.430;6.806;2023-05-07T00:37:29;1.90;;;0.68;;
46613;SDS011;32338;50.430;6.806;2023-05-07T00:39:56;1.58;;;0.60;;
46613;SDS011;32338;50.430;6.806;2023-05-07T00:42:22;0.77;;;0.60;;
46613;SDS011;32338;50.430;6.806;2023-05-07T00:44:49;0.80;;;0.47;;
46613;SDS011;32338;50.430;6.806;2023-05-07T00:47:16;0.88;;;0.50;;
46613;SDS011;32338;50.430;6.806;2023-05-07T00:49:44;2.08;;;0.60;;
46613;SDS011;32338;50.430;6.806;2023-05-07T00:52:13;0.65;;;0.52;;
46613;SDS011;32338;50.430;6.806;2023-05-07T00:54:43;2.33;;;0.68;;
46613;SDS011;32338;50.430;6.806;2023-05-07T00:57:10;1.40;;;0.90;;
46613;SDS011;32338;50.430;6.806;2023-05-07T00:59:37;1.58;;;0.60;;
46613;SDS011;32338;50.430;6.806;2023-05-07T01:02:04;1.98;;;0.70;;
46613;SDS011;32338;50.430;6.806;2023-05-07T01:04:31;1.75;;;0.70;;
46613;SDS011;32338;50.430;6.806;2023-05-07T01:06:58;2.50;;;0.63;;
46613;SDS011;32338;50.430;6.806;2023-05-07T01:09:28;0.68;;;0.60;;
46613;SDS011;32338;50.430;6.806;2023-05-07T01:11:56;3.25;;;0.50;;
46613;SDS011;32338;50.430;6.806;2023-05-07T01:14:24;1.63;;;0.65;;
46613;SDS011;32338;50.430;6.806;2023-05-07T01:16:51;1.00;;;0.70;;
46613;SDS011;32338;50.430;6.806;2023-05-07T01:19:18;2.08;;;0.60;;
46613;SDS011;32338;50.430;6.806;2023-05-07T01:21:46;0.60;;;0.60;;
46613;SDS011;32338;50.430;6.806;2023-05-07T01:24:15;2.92;;;0.60;;
46613;SDS011;32338;50.430;6.806;2023-05-07T01:26:42;2.08;;;0.77;;
46613;SDS011;32338;50.430;6.806;2023-05-07T01:29:09;1.40;;;0.65;;
46613;SDS011;32338;50.430;6.806;2023-05-07T01:31:35;1.27;;;0.73;;
46613;SDS011;32338;50.430;6.806;2023-05-07T01:34:03;4.35;;;0.80;;
46613;SDS011;32338;50.430;6.806;2023-05-07T01:36:31;2.28;;;0.80;;
46613;SDS011;32338;50.430;6.806;2023-05-07T01:38:59;0.90;;;0.63;;
46613;SDS011;32338;50.430;6.806;2023-05-07T01:41:27;0.95;;;0.50;;
46613;SDS011;32338;50.430;6.806;2023-05-07T01:43:54;1.50;;;0.60;;
46613;SDS011;32338;50.430;6.806;2023-05-07T01:46:21;2.60;;;0.65;;
46613;SDS011;32338;50.430;6.806;2023-05-07T01:48:48;0.80;;;0.50;;
46613;SDS011;32338;50.430;6.806;2023-05-07T01:51:16;1.98;;;0.70;;
46613;SDS011;32338;50.430;6.806;2023-05-07T01:53:44;2.03;;;0.60;;
46613;SDS011;32338;50.430;6.806;2023-05-07T01:56:15;0.70;;;0.65;;
46613;SDS011;32338;50.430;6.806;2023-05-07T01:58:43;1.50;;;0.68;;
46613;SDS011;32338;50.430;6.806;2023-05-07T02:01:10;1.00;;;0.50;;
46613;SDS011;32338;50.430;6.806;2023-05-07T02:03:37;0.57;;;0.50;;
46613;SDS011;32338;50.430;6.806;2023-05-07T02:06:03;1.17;;;0.60;;
46613;SDS011;32338;50.430;6.806;2023-05-07T02:08:30;4.07;;;0.50;;
46613;SDS011;32338;50.430;6.806;2023-05-07T02:10:56;0.70;;;0.70;;
46613;SDS011;32338;50.430;6.806;2023-05-07T02:13:23;1.00;;;0.80;;
46613;SDS011;32338;50.430;6.806;2023-05-07T02:15:51;1.85;;;0.60;;
46613;SDS011;32338;50.430;6.806;2023-05-07T02:18:18;1.33;;;0.73;;
46613;SDS011;32338;50.430;6.806;2023-05-07T02:20:45;2.10;;;0.60;;
46613;SDS011;32338;50.430;6.806;2023-05-07T02:23:11;0.82;;;0.60;;
46613;SDS011;32338;50.430;6.806;2023-05-07T02:25:38;1.75;;;0.60;;
46613;SDS011;32338;50.430;6.806;2023-05-07T02:28:04;1.02;;;0.93;;
46613;SDS011;32338;50.430;6.806;2023-05-07T02:30:31;0.95;;;0.68;;
46613;SDS011;32338;50.430;6.806;2023-05-07T02:32:59;1.15;;;0.63;;
46613;SDS011;32338;50.430;6.806;2023-05-07T02:35:26;1.65;;;0.80;;
46613;SDS011;32338;50.430;6.806;2023-05-07T02:37:52;1.25;;;0.60;;
46613;SDS011;32338;50.430;6.806;2023-05-07T02:40:19;0.70;;;0.60;;
46613;SDS011;32338;50.430;6.806;2023-05-07T02:42:46;1.02;;;0.63;;
46613;SDS011;32338;50.430;6.806;2023-05-07T02:45:12;1.33;;;0.60;;
46613;SDS011;32338;50.430;6.806;2023-05-07T02:47:39;2.15;;;0.70;;
46613;SDS011;32338;50.430;6.806;2023-05-07T02:50:07;2.25;;;0.50;;
46613;SDS011;32338;50.430;6.806;2023-05-07T02:52:34;0.75;;;0.75;;
46613;SDS011;32338;50.430;6.806;2023-05-07T02:55:00;0.82;;;0.70;;
46613;SDS011;32338;50.430;6.806;2023-05-07T02:57:27;0.85;;;0.75;;
46613;SDS011;32338;50.430;6.806;2023-05-07T02:59:54;1.15;;;0.70;;
46613;SDS011;32338;50.430;6.806;2023-05-07T03:02:20;2.05;;;0.77;;
46613;SDS011;32338;50.430;6.806;2023-05-07T03:04:47;1.30;;;0.60;;
46613;SDS011;32338;50.430;6.806;2023-05-07T03:07:15;2.03;;;0.70;;
46613;SDS011;32338;50.430;6.806;2023-05-07T03:09:42;0.90;;;0.68;;
46613;SDS011;32338;50.430;6.806;2023-05-07T03:12:08;1.25;;;0.60;;
46613;SDS011;32338;50.430;6.806;2023-05-07T03:14:35;1.20;;;0.52;;
46613;SDS011;32338;50.430;6.806;2023-05-07T03:17:01;0.75;;;0.65;;
46613;SDS011;32338;50.430;6.806;2023-05-07T03:19:28;1.45;;;0.60;;
46613;SDS011;32338;50.430;6.806;2023-05-07T03:21:55;0.77;;;0.50;;
46613;SDS011;32338;50.430;6.806;2023-05-07T03:24:23;0.75;;;0.57;;
46613;SDS011;32338;50.430;6.806;2023-05-07T03:26:50;2.30;;;0.70;;
46613;SDS011;32338;50.430;6.806;2023-05-07T03:29:16;2.47;;;0.70;;
46613;SDS011;32338;50.430;6.806;2023-05-07T03:31:43;1.48;;;0.80;;
46613;SDS011;32338;50.430;6.806;2023-05-07T03:34:10;3.55;;;0.93;;
46613;SDS011;32338;50.430;6.806;2023-05-07T03:36:36;1.00;;;0.80;;
46613;SDS011;32338;50.430;6.806;2023-05-07T03:39:03;1.05;;;0.77;;
46613;SDS011;32338;50.430;6.806;2023-05-07T03:41:31;1.02;;;0.65;;
46613;SDS011;32338;50.430;6.806;2023-05-07T03:43:58;0.95;;;0.65;;
46613;SDS011;32338;50.430;6.806;2023-05-07T03:46:25;3.75;;;0.80;;
46613;SDS011;32338;50.430;6.806;2023-05-07T03:48:53;0.88;;;0.60;;
46613;SDS011;32338;50.430;6.806;2023-05-07T03:51:19;0.93;;;0.70;;
46613;SDS011;32338;50.430;6.806;2023-05-07T03:53:46;3.63;;;0.68;;
46613;SDS011;32338;50.430;6.806;2023-05-07T03:56:12;2.47;;;0.75;;
46613;SDS011;32338;50.430;6.806;2023-05-07T03:58:40;1.00;;;0.70;;
46613;SDS011;32338;50.430;6.806;2023-05-07T04:01:07;0.70;;;0.50;;
46613;SDS011;32338;50.430;6.806;2023-05-07T04:03:33;2.25;;;0.70;;
46613;SDS011;32338;50.430;6.806;2023-05-07T04:06:00;1.45;;;0.70;;
46613;SDS011;32338;50.430;6.806;2023-05-07T04:08:26;1.40;;;0.60;;
46613;SDS011;32338;50.430;6.806;2023-05-07T04:10:56;3.22;;;0.80;;
46613;SDS011;32338;50.430;6.806;2023-05-07T04:13:23;4.32;;;0.60;;
46613;SDS011;32338;50.430;6.806;2023-05-07T04:15:51;0.70;;;0.70;;
46613;SDS011;32338;50.430;6.806;2023-05-07T04:18:18;2.80;;;0.80;;
46613;SDS011;32338;50.430;6.806;2023-05-07T04:20:45;0.60;;;0.60;;
46613;SDS011;32338;50.430;6.806;2023-05-07T04:23:11;1.23;;;0.85;;
46613;SDS011;32338;50.430;6.806;2023-05-07T04:25:38;3.13;;;0.75;;
46613;SDS011;32338;50.430;6.806;2023-05-07T04:28:04;1.40;;;0.70;;
46613;SDS011;32338;50.430;6.806;2023-05-07T04:30:31;0.90;;;0.70;;
46613;SDS011;32338;50.430;6.806;2023-05-07T04:32:59;1.05;;;0.85;;
46613;SDS011;32338;50.430;6.806;2023-05-07T04:35:26;0.70;;;0.70;;
46613;SDS011;32338;50.430;6.806;2023-05-07T04:37:52;3.22;;;0.80;;
46613;SDS011;32338;50.430;6.806;2023-05-07T04:40:19;1.02;;;0.80;;
46613;SDS011;32338;50.430;6.806;2023-05-07T04:42:46;2.05;;;0.77;;
46613;SDS011;32338;50.430;6.806;2023-05-07T04:45:12;1.67;;;0.70;;
46613;SDS011;32338;50.430;6.806;2023-05-07T04:47:39;2.28;;;0.85;;
46613;SDS011;32338;50.430;6.806;2023-05-07T04:50:07;0.70;;;0.70;;
46613;SDS011;32338;50.430;6.806;2023-05-07T04:52:34;0.90;;;0.65;;
46613;SDS011;32338;50.430;6.806;2023-05-07T04:55:01;0.80;;;0.80;;
46613;SDS011;32338;50.430;6.806;2023-05-07T04:57:28;1.35;;;0.95;;
46613;SDS011;32338;50.430;6.806;2023-05-07T04:59:54;2.28;;;0.90;;
46613;SDS011;32338;50.430;6.806;2023-05-07T05:02:21;1.85;;;0.70;;
46613;SDS011;32338;50.430;6.806;2023-05-07T05:04:47;2.25;;;0.90;;
46613;SDS011;32338;50.430;6.806;2023-05-07T05:07:15;1.63;;;0.90;;
46613;SDS011;32338;50.430;6.806;2023-05-07T05:09:42;4.38;;;1.00;;
46613;SDS011;32338;50.430;6.806;2023-05-07T05:12:08;3.72;;;1.00;;
46613;SDS011;32338;50.430;6.806;2023-05-07T05:14:35;3.63;;;1.25;;
46613;SDS011;32338;50.430;6.806;2023-05-07T05:17:02;2.95;;;0.90;;
46613;SDS011;32338;50.430;6.806;2023-05-07T05:19:28;2.08;;;0.95;;
46613;SDS011;32338;50.430;6.806;2023-05-07T05:21:55;1.95;;;1.15;;
46613;SDS011;32338;50.430;6.806;2023-05-07T05:24:23;2.97;;;1.27;;
46613;SDS011;32338;50.430;6.806;2023-05-07T05:26:49;1.73;;;1.27;;
46613;SDS011;32338;50.430;6.806;2023-05-07T05:29:16;1.50;;;1.10;;
46613;SDS011;32338;50.430;6.806;2023-05-07T05:31:42;2.05;;;1.10;;
46613;SDS011;32338;50.430;6.806;2023-05-07T05:34:09;1.30;;;0.85;;
46613;SDS011;32338;50.430;6.806;2023-05-07T05:36:35;2.55;;;0.95;;
46613;SDS011;32338;50.430;6.806;2023-05-07T05:39:02;1.23;;;1.13;;
46613;SDS011;32338;50.430;6.806;2023-05-07T05:41:30;1.27;;;1.00;;
46613;SDS011;32338;50.430;6.806;2023-05-07T05:43:56;1.40;;;0.90;;
46613;SDS011;32338;50.430;6.806;2023-05-07T05:46:23;2.13;;;0.93;;
46613;SDS011;32338;50.430;6.806;2023-05-07T05:48:49;1.63;;;0.88;;
46613;SDS011;32338;50.430;6.806;2023-05-07T05:51:16;2.45;;;1.10;;
46613;SDS011;32338;50.430;6.806;2023-05-07T05:53:42;1.33;;;0.70;;
46613;SDS011;32338;50.430;6.806;2023-05-07T05:56:09;2.90;;;0.90;;
46613;SDS011;32338;50.430;6.806;2023-05-07T05:58:37;1.83;;;0.70;;
46613;SDS011;32338;50.430;6.806;2023-05-07T06:01:04;0.80;;;0.80;;
46613;SDS011;32338;50.430;6.806;2023-05-07T06:03:30;3.80;;;0.70;;
46613;SDS011;32338;50.430;6.806;2023-05-07T06:05:58;0.90;;;0.77;;
46613;SDS011;32338;50.430;6.806;2023-05-07T06:08:25;1.60;;;0.80;;
46613;SDS011;32338;50.430;6.806;2023-05-07T06:10:51;1.25;;;0.73;;
46613;SDS011;32338;50.430;6.806;2023-05-07T06:13:18;1.23;;;0.80;;
46613;SDS011;32338;50.430;6.806;2023-05-07T06:15:46;0.70;;;0.65;;
46613;SDS011;32338;50.430;6.806;2023-05-07T06:18:12;1.20;;;0.93;;
46613;SDS011;32338;50.430;6.806;2023-05-07T06:20:39;0.90;;;0.63;;
46613;SDS011;32338;50.430;6.806;2023-05-07T06:23:05;2.30;;;0.98;;
46613;SDS011;32338;50.430;6.806;2023-05-07T06:25:32;0.70;;;0.70;;
46613;SDS011;32338;50.430;6.806;2023-05-07T06:27:59;1.42;;;0.90;;
46613;SDS011;32338;50.430;6.806;2023-05-07T06:30:25;0.80;;;0.80;;
46613;SDS011;32338;50.430;6.806;2023-05-07T06:32:53;1.25;;;0.70;;
46613;SDS011;32338;50.430;6.806;2023-05-07T06:35:20;2.28;;;0.80;;
46613;SDS011;32338;50.430;6.806;2023-05-07T06:37:47;2.65;;;0.93;;
46613;SDS011;32338;50.430;6.806;2023-05-07T06:40:13;1.23;;;0.82;;
46613;SDS011;32338;50.430;6.806;2023-05-07T06:42:40;0.82;;;0.80;;
46613;SDS011;32338;50.430;6.806;2023-05-07T06:45:07;1.42;;;0.88;;
46613;SDS011;32338;50.430;6.806;2023-05-07T06:47:35;1.00;;;0.90;;
46613;SDS011;32338;50.430;6.806;2023-05-07T06:50:03;1.75;;;0.75;;
46613;SDS011;32338;50.430;6.806;2023-05-07T06:52:30;0.60;;;0.60;;
46613;SDS011;32338;50.430;6.806;2023-05-07T06:54:56;2.05;;;0.70;;
46613;SDS011;32338;50.430;6.806;2023-05-07T06:57:23;1.80;;;0.90;;
46613;SDS011;32338;50.430;6.806;2023-05-07T06:59:50;1.25;;;0.80;;
46613;SDS011;32338;50.430;6.806;2023-05-07T07:02:16;2.88;;;1.00;;
46613;SDS011;32338;50.430;6.806;2023-05-07T07:04:43;1.35;;;1.00;;
46613;SDS011;32338;50.430;6.806;2023-05-07T07:07:11;1.42;;;0.80;;
46613;SDS011;32338;50.430;6.806;2023-05-07T07:09:38;3.80;;;1.00;;
46613;SDS011;32338;50.430;6.806;2023-05-07T07:12:04;2.03;;;0.77;;
46613;SDS011;32338;50.430;6.806;2023-05-07T07:14:31;1.60;;;0.90;;
46613;SDS011;32338;50.430;6.806;2023-05-07T07:16:57;3.75;;;0.70;;
46613;SDS011;32338;50.430;6.806;2023-05-07T07:19:25;2.05;;;0.68;;
46613;SDS011;32338;50.430;6.806;2023-05-07T07:21:52;1.60;;;0.77;;
46613;SDS011;32338;50.430;6.806;2023-05-07T07:24:20;1.50;;;0.80;;
46613;SDS011;32338;50.430;6.806;2023-05-07T07:26:46;5.85;;;1.15;;
46613;SDS011;32338;50.430;6.806;2023-05-07T07:29:13;2.97;;;0.77;;
46613;SDS011;32338;50.430;6.806;2023-05-07T07:31:39;0.80;;;0.68;;
46613;SDS011;32338;50.430;6.806;2023-05-07T07:34:06;1.70;;;0.93;;
46613;SDS011;32338;50.430;6.806;2023-05-07T07:36:32;0.95;;;0.77;;
46613;SDS011;32338;50.430;6.806;2023-05-07T07:38:59;4.20;;;0.88;;
46613;SDS011;32338;50.430;6.806;2023-05-07T07:41:27;2.67;;;0.77;;
46613;SDS011;32338;50.430;6.806;2023-05-07T07:43:53;1.25;;;0.82;;
46613;SDS011;32338;50.430;6.806;2023-05-07T07:46:20;0.80;;;0.70;;
46613;SDS011;32338;50.430;6.806;2023-05-07T07:48:47;2.13;;;0.80;;
46613;SDS011;32338;50.430;6.806;2023-05-07T07:51:13;1.48;;;0.90;;
46613;SDS011;32338;50.430;6.806;2023-05-07T07:53:40;0.85;;;0.60;;
46613;SDS011;32338;50.430;6.806;2023-05-07T07:56:07;1.20;;;0.80;;
46613;SDS011;32338;50.430;6.806;2023-05-07T07:58:35;1.90;;;0.85;;
46613;SDS011;32338;50.430;6.806;2023-05-07T08:01:03;3.03;;;0.80;;
46613;SDS011;32338;50.430;6.806;2023-05-07T08:03:30;1.60;;;0.82;;
46613;SDS011;32338;50.430;6.806;2023-05-07T08:05:58;0.80;;;0.55;;
46613;SDS011;32338;50.430;6.806;2023-05-07T08:08:25;2.55;;;0.60;;
46613;SDS011;32338;50.430;6.806;2023-05-07T08:10:51;2.75;;;1.08;;
46613;SDS011;32338;50.430;6.806;2023-05-07T08:13:18;1.90;;;0.80;;
46613;SDS011;32338;50.430;6.806;2023-05-07T08:15:46;5.80;;;0.80;;
46613;SDS011;32338;50.430;6.806;2023-05-07T08:18:12;1.02;;;0.80;;
46613;SDS011;32338;50.430;6.806;2023-05-07T08:20:40;0.88;;;0.85;;
46613;SDS011;32338;50.430;6.806;2023-05-07T08:23:07;6.63;;;1.17;;
46613;SDS011;32338;50.430;6.806;2023-05-07T08:25:34;3.45;;;0.82;;
46613;SDS011;32338;50.430;6.806;2023-05-07T08:28:01;0.90;;;0.73;;
46613;SDS011;32338;50.430;6.806;2023-05-07T08:30:28;2.33;;;0.80;;
46613;SDS011;32338;50.430;6.806;2023-05-07T08:32:56;0.95;;;0.80;;
46613;SDS011;32338;50.430;6.806;2023-05-07T08:35:22;1.83;;;0.70;;
46613;SDS011;32338;50.430;6.806;2023-05-07T08:37:50;2.50;;;0.55;;
46613;SDS011;32338;50.430;6.806;2023-05-07T08:40:17;1.83;;;0.80;;
46613;SDS011;32338;50.430;6.806;2023-05-07T08:42:43;2.20;;;0.90;;
46613;SDS011;32338;50.430;6.806;2023-05-07T08:45:10;1.70;;;0.77;;
46613;SDS011;32338;50.430;6.806;2023-05-07T08:47:40;2.38;;;0.90;;
46613;SDS011;32338;50.430;6.806;2023-05-07T08:50:11;1.55;;;0.80;;
46613;SDS011;32338;50.430;6.806;2023-05-07T08:52:38;1.10;;;0.68;;
46613;SDS011;32338;50.430;6.806;2023-05-07T08:55:05;2.15;;;0.77;;
46613;SDS011;32338;50.430;6.806;2023-05-07T08:57:33;1.85;;;0.60;;
46613;SDS011;32338;50.430;6.806;2023-05-07T09:00:00;2.33;;;0.90;;
46613;SDS011;32338;50.430;6.806;2023-05-07T09:02:27;3.15;;;0.82;;
46613;SDS011;32338;50.430;6.806;2023-05-07T09:04:53;2.17;;;0.90;;
46613;SDS011;32338;50.430;6.806;2023-05-07T09:07:21;1.33;;;0.80;;
46613;SDS011;32338;50.430;6.806;2023-05-07T09:09:48;1.38;;;0.82;;
46613;SDS011;32338;50.430;6.806;2023-05-07T09:12:17;5.35;;;0.80;;
46613;SDS011;32338;50.430;6.806;2023-05-07T09:14:44;2.55;;;0.80;;
46613;SDS011;32338;50.430;6.806;2023-05-07T09:17:11;1.35;;;0.70;;
46613;SDS011;32338;50.430;6.806;2023-05-07T09:19:38;2.53;;;0.85;;
46613;SDS011;32338;50.430;6.806;2023-05-07T09:22:05;1.27;;;0.63;;
46613;SDS011;32338;50.430;6.806;2023-05-07T09:24:34;2.20;;;0.60;;
46613;SDS011;32338;50.430;6.806;2023-05-07T09:27:02;2.38;;;0.80;;
46613;SDS011;32338;50.430;6.806;2023-05-07T09:29:30;1.30;;;0.75;;
46613;SDS011;32338;50.430;6.806;2023-05-07T09:32:00;1.95;;;0.63;;
46613;SDS011;32338;50.430;6.806;2023-05-07T09:34:27;0.95;;;0.60;;
46613;SDS011;32338;50.430;6.806;2023-05-07T09:36:53;0.98;;;0.80;;
46613;SDS011;32338;50.430;6.806;2023-05-07T09:39:20;3.70;;;0.73;;
46613;SDS011;32338;50.430;6.806;2023-05-07T09:41:48;1.75;;;0.77;;
46613;SDS011;32338;50.430;6.806;2023-05-07T09:44:16;2.97;;;0.77;;
46613;SDS011;32338;50.430;6.806;2023-05-07T09:46:43;1.70;;;0.60;;
46613;SDS011;32338;50.430;6.806;2023-05-07T09:49:11;2.00;;;0.60;;
46613;SDS011;32338;50.430;6.806;2023-05-07T09:51:43;0.73;;;0.57;;
46613;SDS011;32338;50.430;6.806;2023-05-07T09:54:14;1.17;;;0.52;;
46613;SDS011;32338;50.430;6.806;2023-05-07T09:56:41;1.75;;;0.93;;
46613;SDS011;32338;50.430;6.806;2023-05-07T09:59:11;3.00;;;0.80;;
46613;SDS011;32338;50.430;6.806;2023-05-07T10:01:39;3.60;;;0.80;;
46613;SDS011;32338;50.430;6.806;2023-05-07T10:04:07;0.77;;;0.75;;
46613;SDS011;32338;50.430;6.806;2023-05-07T10:06:34;1.42;;;0.60;;
46613;SDS011;32338;50.430;6.806;2023-05-07T10:09:01;2.03;;;0.70;;
46613;SDS011;32338;50.430;6.806;2023-05-07T10:11:30;2.58;;;0.60;;
46613;SDS011;32338;50.430;6.806;2023-05-07T10:13:58;1.88;;;0.90;;
46613;SDS011;32338;50.430;6.806;2023-05-07T10:16:28;3.80;;;0.80;;
46613;SDS011;32338;50.430;6.806;2023-05-07T10:18:57;2.80;;;0.60;;
46613;SDS011;32338;50.430;6.806;2023-05-07T10:21:24;0.85;;;0.60;;
46613;SDS011;32338;50.430;6.806;2023-05-07T10:23:57;3.03;;;0.80;;
46613;SDS011;32338;50.430;6.806;2023-05-07T10:26:27;2.78;;;0.70;;
46613;SDS011;32338;50.430;6.806;2023-05-07T10:28:58;1.75;;;0.60;;
46613;SDS011;32338;50.430;6.806;2023-05-07T10:34:23;1.27;;;0.50;;
46613;SDS011;32338;50.430;6.806;2023-05-07T10:36:52;1.92;;;0.60;;
46613;SDS011;32338;50.430;6.806;2023-05-07T10:39:20;0.77;;;0.60;;
46613;SDS011;32338;50.430;6.806;2023-05-07T10:41:47;0.95;;;0.65;;
46613;SDS011;32338;50.430;6.806;2023-05-07T10:44:24;1.60;;;0.40;;
46613;SDS011;32338;50.430;6.806;2023-05-07T10:58:52;0.90;;;0.50;;
46613;SDS011;32338;50.430;6.806;2023-05-07T11:04:17;1.02;;;0.77;;
46613;SDS011;32338;50.430;6.806;2023-05-07T11:09:58;0.80;;;0.50;;
46613;SDS011;32338;50.430;6.806;2023-05-07T11:15:34;1.48;;;0.60;;
46613;SDS011;32338;50.430;6.806;2023-05-07T11:18:09;3.53;;;0.70;;
46613;SDS011;32338;50.430;6.806;2023-05-07T11:20:48;4.00;;;0.73;;
46613;SDS011;32338;50.430;6.806;2023-05-07T11:26:26;1.17;;;0.70;;
46613;SDS011;32338;50.430;6.806;2023-05-07T11:28:54;1.13;;;0.80;;
46613;SDS011;32338;50.430;6.806;2023-05-07T11:31:22;1.83;;;0.70;;
46613;SDS011;32338;50.430;6.806;2023-05-07T11:33:51;1.08;;;0.60;;
46613;SDS011;32338;50.430;6.806;2023-05-07T11:36:20;1.98;;;0.68;;
46613;SDS011;32338;50.430;6.806;2023-05-07T11:38:48;2.17;;;0.70;;
46613;SDS011;32338;50.430;6.806;2023-05-07T11:41:15;1.52;;;0.60;;
46613;SDS011;32338;50.430;6.806;2023-05-07T11:43:55;1.55;;;0.70;;
46613;SDS011;32338;50.430;6.806;2023-05-07T11:46:22;0.80;;;0.68;;
46613;SDS011;32338;50.430;6.806;2023-05-07T11:48:49;3.83;;;0.73;;
46613;SDS011;32338;50.430;6.806;2023-05-07T11:51:19;1.60;;;0.70;;
46613;SDS011;32338;50.430;6.806;2023-05-07T11:53:47;1.23;;;0.70;;
46613;SDS011;32338;50.430;6.806;2023-05-07T11:56:15;1.33;;;0.63;;
46613;SDS011;32338;50.430;6.806;2023-05-07T11:58:44;1.85;;;0.50;;
46613;SDS011;32338;50.430;6.806;2023-05-07T12:01:12;1.95;;;0.70;;
46613;SDS011;32338;50.430;6.806;2023-05-07T12:03:41;2.65;;;0.70;;
46613;SDS011;32338;50.430;6.806;2023-05-07T12:06:09;0.82;;;0.77;;
46613;SDS011;32338;50.430;6.806;2023-05-07T12:08:38;1.40;;;0.98;;
46613;SDS011;32338;50.430;6.806;2023-05-07T12:11:06;1.10;;;0.75;;
46613;SDS011;32338;50.430;6.806;2023-05-07T12:13:34;0.65;;;0.57;;
46613;SDS011;32338;50.430;6.806;2023-05-07T12:16:01;2.17;;;0.65;;
46613;SDS011;32338;50.430;6.806;2023-05-07T12:18:29;1.70;;;0.60;;
46613;SDS011;32338;50.430;6.806;2023-05-07T12:20:56;0.85;;;0.60;;
46613;SDS011;32338;50.430;6.806;2023-05-07T12:23:23;1.52;;;0.70;;
46613;SDS011;32338;50.430;6.806;2023-05-07T12:25:51;1.05;;;0.70;;
46613;SDS011;32338;50.430;6.806;2023-05-07T12:28:19;3.08;;;0.65;;
46613;SDS011;32338;50.430;6.806;2023-05-07T12:30:46;0.80;;;0.50;;
46613;SDS011;32338;50.430;6.806;2023-05-07T12:33:15;0.65;;;0.60;;
46613;SDS011;32338;50.430;6.806;2023-05-07T12:35:43;2.35;;;0.52;;
46613;SDS011;32338;50.430;6.806;2023-05-07T12:38:10;1.65;;;0.95;;
46613;SDS011;32338;50.430;6.806;2023-05-07T12:40:39;1.25;;;0.50;;
46613;SDS011;32338;50.430;6.806;2023-05-07T12:43:09;1.30;;;0.85;;
46613;SDS011;32338;50.430;6.806;2023-05-07T12:45:41;0.98;;;0.68;;
46613;SDS011;32338;50.430;6.806;2023-05-07T12:48:09;0.63;;;0.60;;
46613;SDS011;32338;50.430;6.806;2023-05-07T12:50:36;1.25;;;0.63;;
46613;SDS011;32338;50.430;6.806;2023-05-07T12:53:03;4.25;;;1.08;;
46613;SDS011;32338;50.430;6.806;2023-05-07T12:55:31;1.25;;;0.70;;
46613;SDS011;32338;50.430;6.806;2023-05-07T12:58:00;1.20;;;0.60;;
46613;SDS011;32338;50.430;6.806;2023-05-07T13:00:35;1.50;;;0.50;;
46613;SDS011;32338;50.430;6.806;2023-05-07T13:05:30;1.42;;;0.70;;
46613;SDS011;32338;50.430;6.806;2023-05-07T13:07:57;2.30;;;0.68;;
46613;SDS011;32338;50.430;6.806;2023-05-07T13:10:24;2.55;;;1.13;;
46613;SDS011;32338;50.430;6.806;2023-05-07T13:12:51;1.00;;;0.80;;
46613;SDS011;32338;50.430;6.806;2023-05-07T13:15:17;2.35;;;0.80;;
46613;SDS011;32338;50.430;6.806;2023-05-07T13:17:45;1.05;;;0.80;;
46613;SDS011;32338;50.430;6.806;2023-05-07T13:20:12;1.55;;;0.95;;
46613;SDS011;32338;50.430;6.806;2023-05-07T13:22:39;0.80;;;0.75;;
46613;SDS011;32338;50.430;6.806;2023-05-07T13:25:06;2.75;;;0.80;;
46613;SDS011;32338;50.430;6.806;2023-05-07T13:27:33;1.65;;;0.88;;
46613;SDS011;32338;50.430;6.806;2023-05-07T13:30:01;1.38;;;1.00;;
46613;SDS011;32338;50.430;6.806;2023-05-07T13:32:29;3.38;;;1.13;;
46613;SDS011;32338;50.430;6.806;2023-05-07T13:34:57;10.32;;;1.77;;
46613;SDS011;32338;50.430;6.806;2023-05-07T13:37:24;6.57;;;1.63;;
46613;SDS011;32338;50.430;6.806;2023-05-07T13:39:50;3.55;;;1.23;;
46613;SDS011;32338;50.430;6.806;2023-05-07T13:42:17;2.40;;;1.40;;
46613;SDS011;32338;50.430;6.806;2023-05-07T13:44:44;4.50;;;1.50;;
46613;SDS011;32338;50.430;6.806;2023-05-07T13:47:11;3.42;;;1.90;;
46613;SDS011;32338;50.430;6.806;2023-05-07T13:49:37;2.22;;;1.45;;
46613;SDS011;32338;50.430;6.806;2023-05-07T13:52:05;2.30;;;1.60;;
46613;SDS011;32338;50.430;6.806;2023-05-07T13:54:32;2.00;;;1.40;;
46613;SDS011;32338;50.430;6.806;2023-05-07T13:56:58;4.03;;;2.40;;
46613;SDS011;32338;50.430;6.806;2023-05-07T13:59:25;3.33;;;2.40;;
46613;SDS011;32338;50.430;6.806;2023-05-07T14:01:52;7.05;;;2.42;;
46613;SDS011;32338;50.430;6.806;2023-05-07T14:04:19;4.25;;;2.20;;
46613;SDS011;32338;50.430;6.806;2023-05-07T14:06:46;5.18;;;2.67;;
46613;SDS011;32338;50.430;6.806;2023-05-07T14:09:14;3.33;;;2.67;;
46613;SDS011;32338;50.430;6.806;2023-05-07T14:11:40;7.13;;;2.45;;
46613;SDS011;32338;50.430;6.806;2023-05-07T14:14:07;4.60;;;3.70;;
46613;SDS011;32338;50.430;6.806;2023-05-07T14:16:35;4.70;;;2.55;;
46613;SDS011;32338;50.430;6.806;2023-05-07T14:19:02;5.05;;;2.60;;
46613;SDS011;32338;50.430;6.806;2023-05-07T14:21:28;4.05;;;2.60;;
46613;SDS011;32338;50.430;6.806;2023-05-07T14:23:56;2.63;;;2.35;;
46613;SDS011;32338;50.430;6.806;2023-05-07T14:26:24;4.88;;;3.15;;
46613;SDS011;32338;50.430;6.806;2023-05-07T14:28:52;3.35;;;2.50;;
46613;SDS011;32338;50.430;6.806;2023-05-07T14:31:19;7.95;;;2.83;;
46613;SDS011;32338;50.430;6.806;2023-05-07T14:33:46;4.30;;;2.75;;
46613;SDS011;32338;50.430;6.806;2023-05-07T14:36:14;9.75;;;3.33;;
46613;SDS011;32338;50.430;6.806;2023-05-07T14:38:41;10.27;;;3.00;;
46613;SDS011;32338;50.430;6.806;2023-05-07T14:41:07;5.25;;;2.78;;
46613;SDS011;32338;50.430;6.806;2023-05-07T14:43:35;8.82;;;3.28;;
46613;SDS011;32338;50.430;6.806;2023-05-07T14:48:29;5.20;;;3.10;;
46613;SDS011;32338;50.430;6.806;2023-05-07T14:50:56;5.43;;;3.30;;
46613;SDS011;32338;50.430;6.806;2023-05-07T14:53:23;7.47;;;3.15;;
46613;SDS011;32338;50.430;6.806;2023-05-07T14:55:50;8.43;;;3.63;;
46613;SDS011;32338;50.430;6.806;2023-05-07T14:58:16;4.85;;;3.75;;
46613;SDS011;32338;50.430;6.806;2023-05-07T15:00:44;8.50;;;3.42;;
46613;SDS011;32338;50.430;6.806;2023-05-07T15:03:11;4.72;;;3.75;;
46613;SDS011;32338;50.430;6.806;2023-05-07T15:05:38;10.02;;;3.50;;
46613;SDS011;32338;50.430;6.806;2023-05-07T15:08:06;6.57;;;3.20;;
46613;SDS011;32338;50.430;6.806;2023-05-07T15:10:34;4.28;;;3.30;;
46613;SDS011;32338;50.430;6.806;2023-05-07T15:13:05;4.05;;;3.10;;
46613;SDS011;32338;50.430;6.806;2023-05-07T15:15:33;5.93;;;3.30;;
46613;SDS011;32338;50.430;6.806;2023-05-07T15:18:01;7.72;;;3.25;;
46613;SDS011;32338;50.430;6.806;2023-05-07T15:20:27;5.72;;;2.95;;